Terminal Aerodrome Forecast
Issued by NWS Buffalo, NY

Home | Current Version | Previous Version | Text Only | Print | Product List | Glossary On
Versions: 1 2 3 4 5 6 7 8 9 10 11 12 13 14 15 16 17 18 19 20 21 22 23 24 25 26 27 28 29
887
FTUS41 KBUF 231053 AAA
TAFROC
TAF AMD
KROC 231053Z 2311/2406 08007KT 2SM BR OVC003
     FM231200 07007KT 5SM BR BKN030
     FM231800 07011KT 6SM -RA OVC020
     FM232200 07012KT 4SM RA OVC025
     FM240000 06012G20KT 3SM -RASN OVC020=

USA.gov is the U.S. government's official web portal to all federal, state and local government web resources and services.